Decatur, Illinois
Current Conditions -  °F | °C
As of 2:54 PM on Thursday 27 Nov 2014 (Local Time) from KDEC Reporting Station
Overcast Overcast  
Wind Chill: 13°   Ceiling: 1500
Heat Index: 24°   Visibility: 9mi
Dew Point: 18°   Wind: 12mph
Humidity: 77%   Direction: 280°W
Pressure: 30.43"   Gusts: 22mph
Location:  39.85°N, 88.95°W
Report Text: KDEC 272054Z AUTO 28010G19KT 9SM OVC015 M04/M08 A3043 RMK AO2 SLP315 60000 T10441078 53008 TSNO
Loading
Personal Weather Stations






























Interactive Weather Map New forecast layout! Learn more

10-Day Weather Forecast

Advertisements
Track Severe Weather on mobile